sensor_id;sensor_type;location;lat;lon;timestamp;P1;durP1;ratioP1;P2;durP2;ratioP2
50128;SDS011;36026;45.478;9.224;2023-06-22T00:00:15;16.55;;;6.15;;
50128;SDS011;36026;45.478;9.224;2023-06-22T00:03:18;14.02;;;5.93;;
50128;SDS011;36026;45.478;9.224;2023-06-22T00:06:21;13.00;;;6.50;;
50128;SDS011;36026;45.478;9.224;2023-06-22T00:09:23;13.45;;;6.10;;
50128;SDS011;36026;45.478;9.224;2023-06-22T00:12:24;14.57;;;6.43;;
50128;SDS011;36026;45.478;9.224;2023-06-22T00:15:26;14.40;;;6.72;;
50128;SDS011;36026;45.478;9.224;2023-06-22T00:18:30;15.57;;;6.72;;
50128;SDS011;36026;45.478;9.224;2023-06-22T00:21:32;14.00;;;7.03;;
50128;SDS011;36026;45.478;9.224;2023-06-22T00:24:34;15.93;;;6.93;;
50128;SDS011;36026;45.478;9.224;2023-06-22T00:27:36;15.18;;;7.25;;
50128;SDS011;36026;45.478;9.224;2023-06-22T00:30:38;13.88;;;7.32;;
50128;SDS011;36026;45.478;9.224;2023-06-22T00:33:41;16.00;;;7.50;;
50128;SDS011;36026;45.478;9.224;2023-06-22T00:36:45;13.15;;;7.55;;
50128;SDS011;36026;45.478;9.224;2023-06-22T00:39:46;11.63;;;6.80;;
50128;SDS011;36026;45.478;9.224;2023-06-22T00:42:48;14.13;;;7.15;;
50128;SDS011;36026;45.478;9.224;2023-06-22T00:45:50;11.80;;;7.32;;
50128;SDS011;36026;45.478;9.224;2023-06-22T00:48:53;14.45;;;7.80;;
50128;SDS011;36026;45.478;9.224;2023-06-22T00:51:57;12.57;;;7.82;;
50128;SDS011;36026;45.478;9.224;2023-06-22T00:54:59;13.07;;;8.10;;
50128;SDS011;36026;45.478;9.224;2023-06-22T00:58:01;13.35;;;7.13;;
50128;SDS011;36026;45.478;9.224;2023-06-22T01:01:05;14.80;;;7.80;;
50128;SDS011;36026;45.478;9.224;2023-06-22T01:04:08;15.82;;;7.70;;
50128;SDS011;36026;45.478;9.224;2023-06-22T01:07:14;17.75;;;7.70;;
50128;SDS011;36026;45.478;9.224;2023-06-22T01:10:21;12.38;;;7.40;;
50128;SDS011;36026;45.478;9.224;2023-06-22T01:13:28;14.50;;;7.47;;
50128;SDS011;36026;45.478;9.224;2023-06-22T01:16:39;15.73;;;8.25;;
50128;SDS011;36026;45.478;9.224;2023-06-22T01:19:45;10.07;;;7.15;;
50128;SDS011;36026;45.478;9.224;2023-06-22T01:22:54;21.77;;;8.15;;
50128;SDS011;36026;45.478;9.224;2023-06-22T01:26:06;19.88;;;7.78;;
50128;SDS011;36026;45.478;9.224;2023-06-22T01:29:12;18.42;;;8.32;;
50128;SDS011;36026;45.478;9.224;2023-06-22T01:32:14;13.63;;;8.50;;
50128;SDS011;36026;45.478;9.224;2023-06-22T01:35:16;18.87;;;7.67;;
50128;SDS011;36026;45.478;9.224;2023-06-22T01:38:19;15.38;;;7.53;;
50128;SDS011;36026;45.478;9.224;2023-06-22T01:41:24;13.00;;;7.97;;
50128;SDS011;36026;45.478;9.224;2023-06-22T01:44:28;14.90;;;7.57;;
50128;SDS011;36026;45.478;9.224;2023-06-22T01:47:30;13.45;;;7.75;;
50128;SDS011;36026;45.478;9.224;2023-06-22T01:50:32;14.05;;;7.60;;
50128;SDS011;36026;45.478;9.224;2023-06-22T01:53:33;15.32;;;8.57;;
50128;SDS011;36026;45.478;9.224;2023-06-22T01:56:35;11.43;;;7.75;;
50128;SDS011;36026;45.478;9.224;2023-06-22T01:59:39;14.70;;;8.40;;
50128;SDS011;36026;45.478;9.224;2023-06-22T02:02:48;15.38;;;7.78;;
50128;SDS011;36026;45.478;9.224;2023-06-22T02:05:54;13.93;;;8.15;;
50128;SDS011;36026;45.478;9.224;2023-06-22T02:08:59;16.75;;;8.23;;
50128;SDS011;36026;45.478;9.224;2023-06-22T02:12:03;14.35;;;8.27;;
50128;SDS011;36026;45.478;9.224;2023-06-22T02:15:08;18.02;;;8.13;;
50128;SDS011;36026;45.478;9.224;2023-06-22T02:18:10;11.32;;;7.82;;
50128;SDS011;36026;45.478;9.224;2023-06-22T02:21:13;15.57;;;8.43;;
50128;SDS011;36026;45.478;9.224;2023-06-22T02:24:15;16.75;;;8.38;;
50128;SDS011;36026;45.478;9.224;2023-06-22T02:27:16;15.43;;;8.02;;
50128;SDS011;36026;45.478;9.224;2023-06-22T02:30:20;18.33;;;8.95;;
50128;SDS011;36026;45.478;9.224;2023-06-22T02:36:23;15.13;;;7.88;;
50128;SDS011;36026;45.478;9.224;2023-06-22T02:39:25;14.38;;;7.95;;
50128;SDS011;36026;45.478;9.224;2023-06-22T02:42:27;17.85;;;7.88;;
50128;SDS011;36026;45.478;9.224;2023-06-22T02:45:30;13.95;;;7.65;;
50128;SDS011;36026;45.478;9.224;2023-06-22T02:51:33;14.02;;;7.50;;
50128;SDS011;36026;45.478;9.224;2023-06-22T02:54:35;15.00;;;7.97;;
50128;SDS011;36026;45.478;9.224;2023-06-22T02:57:37;18.30;;;8.25;;
50128;SDS011;36026;45.478;9.224;2023-06-22T03:00:45;13.40;;;8.15;;
50128;SDS011;36026;45.478;9.224;2023-06-22T03:06:48;11.68;;;7.82;;
50128;SDS011;36026;45.478;9.224;2023-06-22T03:09:51;14.30;;;7.93;;
50128;SDS011;36026;45.478;9.224;2023-06-22T03:12:52;16.92;;;7.78;;
50128;SDS011;36026;45.478;9.224;2023-06-22T03:15:55;13.27;;;8.43;;
50128;SDS011;36026;45.478;9.224;2023-06-22T03:18:57;15.00;;;8.63;;
50128;SDS011;36026;45.478;9.224;2023-06-22T03:21:59;12.68;;;8.15;;
50128;SDS011;36026;45.478;9.224;2023-06-22T03:25:01;11.88;;;8.00;;
50128;SDS011;36026;45.478;9.224;2023-06-22T03:28:03;12.30;;;7.55;;
50128;SDS011;36026;45.478;9.224;2023-06-22T03:31:06;12.57;;;7.90;;
50128;SDS011;36026;45.478;9.224;2023-06-22T03:37:09;13.98;;;7.82;;
50128;SDS011;36026;45.478;9.224;2023-06-22T03:40:12;14.50;;;7.97;;
50128;SDS011;36026;45.478;9.224;2023-06-22T03:43:14;20.05;;;8.73;;
50128;SDS011;36026;45.478;9.224;2023-06-22T03:46:17;12.02;;;8.35;;
50128;SDS011;36026;45.478;9.224;2023-06-22T03:49:20;19.55;;;8.55;;
50128;SDS011;36026;45.478;9.224;2023-06-22T03:52:21;14.45;;;8.52;;
50128;SDS011;36026;45.478;9.224;2023-06-22T03:55:23;19.48;;;8.32;;
50128;SDS011;36026;45.478;9.224;2023-06-22T03:58:25;14.07;;;8.50;;
50128;SDS011;36026;45.478;9.224;2023-06-22T04:01:28;13.02;;;8.20;;
50128;SDS011;36026;45.478;9.224;2023-06-22T04:04:29;16.95;;;8.05;;
50128;SDS011;36026;45.478;9.224;2023-06-22T04:07:31;14.50;;;8.73;;
50128;SDS011;36026;45.478;9.224;2023-06-22T04:10:33;17.15;;;8.07;;
50128;SDS011;36026;45.478;9.224;2023-06-22T04:13:34;13.25;;;8.48;;
50128;SDS011;36026;45.478;9.224;2023-06-22T04:16:37;12.60;;;8.18;;
50128;SDS011;36026;45.478;9.224;2023-06-22T04:19:39;15.55;;;9.02;;
50128;SDS011;36026;45.478;9.224;2023-06-22T04:22:41;14.57;;;9.52;;
50128;SDS011;36026;45.478;9.224;2023-06-22T04:25:42;12.82;;;8.77;;
50128;SDS011;36026;45.478;9.224;2023-06-22T04:28:44;14.85;;;9.80;;
50128;SDS011;36026;45.478;9.224;2023-06-22T04:31:52;11.45;;;8.43;;
50128;SDS011;36026;45.478;9.224;2023-06-22T04:34:56;16.13;;;8.68;;
50128;SDS011;36026;45.478;9.224;2023-06-22T04:37:58;16.38;;;8.85;;
50128;SDS011;36026;45.478;9.224;2023-06-22T04:40:59;15.65;;;8.55;;
50128;SDS011;36026;45.478;9.224;2023-06-22T04:44:03;15.68;;;8.88;;
50128;SDS011;36026;45.478;9.224;2023-06-22T04:47:06;16.67;;;8.95;;
50128;SDS011;36026;45.478;9.224;2023-06-22T04:50:08;15.82;;;9.00;;
50128;SDS011;36026;45.478;9.224;2023-06-22T04:53:10;16.70;;;8.75;;
50128;SDS011;36026;45.478;9.224;2023-06-22T04:56:12;19.70;;;9.02;;
50128;SDS011;36026;45.478;9.224;2023-06-22T05:02:20;16.50;;;9.03;;
50128;SDS011;36026;45.478;9.224;2023-06-22T05:05:23;13.82;;;8.68;;
50128;SDS011;36026;45.478;9.224;2023-06-22T05:08:24;12.20;;;8.02;;
50128;SDS011;36026;45.478;9.224;2023-06-22T05:11:28;15.20;;;8.73;;
50128;SDS011;36026;45.478;9.224;2023-06-22T05:14:30;16.83;;;8.82;;
50128;SDS011;36026;45.478;9.224;2023-06-22T05:17:33;15.75;;;8.57;;
50128;SDS011;36026;45.478;9.224;2023-06-22T05:20:35;13.60;;;8.70;;
50128;SDS011;36026;45.478;9.224;2023-06-22T05:23:37;17.95;;;7.82;;
50128;SDS011;36026;45.478;9.224;2023-06-22T05:26:38;14.38;;;8.40;;
50128;SDS011;36026;45.478;9.224;2023-06-22T05:29:40;25.10;;;8.88;;
50128;SDS011;36026;45.478;9.224;2023-06-22T05:32:44;13.63;;;7.80;;
50128;SDS011;36026;45.478;9.224;2023-06-22T05:35:45;14.05;;;7.85;;
50128;SDS011;36026;45.478;9.224;2023-06-22T05:38:47;17.88;;;8.85;;
50128;SDS011;36026;45.478;9.224;2023-06-22T05:41:49;12.30;;;7.65;;
50128;SDS011;36026;45.478;9.224;2023-06-22T05:44:51;16.40;;;7.72;;
50128;SDS011;36026;45.478;9.224;2023-06-22T05:47:54;11.55;;;8.00;;
50128;SDS011;36026;45.478;9.224;2023-06-22T05:50:56;14.70;;;8.45;;
50128;SDS011;36026;45.478;9.224;2023-06-22T05:53:58;14.25;;;8.65;;
50128;SDS011;36026;45.478;9.224;2023-06-22T05:56:59;14.02;;;8.15;;
50128;SDS011;36026;45.478;9.224;2023-06-22T06:00:01;12.23;;;7.72;;
50128;SDS011;36026;45.478;9.224;2023-06-22T06:03:07;12.18;;;8.38;;
50128;SDS011;36026;45.478;9.224;2023-06-22T06:06:09;14.65;;;7.68;;
50128;SDS011;36026;45.478;9.224;2023-06-22T06:09:11;14.80;;;9.32;;
50128;SDS011;36026;45.478;9.224;2023-06-22T06:12:13;13.75;;;7.88;;
50128;SDS011;36026;45.478;9.224;2023-06-22T06:15:15;23.23;;;7.82;;
50128;SDS011;36026;45.478;9.224;2023-06-22T06:18:18;13.55;;;7.50;;
50128;SDS011;36026;45.478;9.224;2023-06-22T06:24:21;11.02;;;6.82;;
50128;SDS011;36026;45.478;9.224;2023-06-22T06:27:22;15.65;;;7.00;;
50128;SDS011;36026;45.478;9.224;2023-06-22T06:30:29;19.02;;;7.18;;
50128;SDS011;36026;45.478;9.224;2023-06-22T06:33:32;9.98;;;6.50;;
50128;SDS011;36026;45.478;9.224;2023-06-22T06:39:36;18.38;;;7.15;;
50128;SDS011;36026;45.478;9.224;2023-06-22T06:42:37;18.02;;;7.68;;
50128;SDS011;36026;45.478;9.224;2023-06-22T06:45:41;15.35;;;7.47;;
50128;SDS011;36026;45.478;9.224;2023-06-22T06:48:44;14.80;;;7.07;;
50128;SDS011;36026;45.478;9.224;2023-06-22T06:54:47;17.75;;;7.63;;
50128;SDS011;36026;45.478;9.224;2023-06-22T06:57:51;15.07;;;7.72;;
50128;SDS011;36026;45.478;9.224;2023-06-22T07:00:53;19.85;;;8.07;;
50128;SDS011;36026;45.478;9.224;2023-06-22T07:03:56;13.20;;;7.70;;
50128;SDS011;36026;45.478;9.224;2023-06-22T07:09:59;14.95;;;9.25;;
50128;SDS011;36026;45.478;9.224;2023-06-22T07:13:01;19.92;;;7.93;;
50128;SDS011;36026;45.478;9.224;2023-06-22T07:16:03;16.00;;;7.78;;
50128;SDS011;36026;45.478;9.224;2023-06-22T07:19:07;23.75;;;8.05;;
50128;SDS011;36026;45.478;9.224;2023-06-22T07:22:08;15.43;;;8.38;;
50128;SDS011;36026;45.478;9.224;2023-06-22T07:25:10;12.18;;;7.40;;
50128;SDS011;36026;45.478;9.224;2023-06-22T07:28:14;11.35;;;7.38;;
50128;SDS011;36026;45.478;9.224;2023-06-22T07:31:16;11.30;;;7.30;;
50128;SDS011;36026;45.478;9.224;2023-06-22T07:34:19;18.35;;;8.57;;
50128;SDS011;36026;45.478;9.224;2023-06-22T07:37:20;11.50;;;7.25;;
50128;SDS011;36026;45.478;9.224;2023-06-22T07:40:22;13.40;;;7.50;;
50128;SDS011;36026;45.478;9.224;2023-06-22T07:43:24;13.77;;;7.60;;
50128;SDS011;36026;45.478;9.224;2023-06-22T07:46:25;16.63;;;7.55;;
50128;SDS011;36026;45.478;9.224;2023-06-22T07:49:28;19.23;;;8.20;;
50128;SDS011;36026;45.478;9.224;2023-06-22T07:52:30;15.13;;;7.53;;
50128;SDS011;36026;45.478;9.224;2023-06-22T07:55:32;15.35;;;7.95;;
50128;SDS011;36026;45.478;9.224;2023-06-22T07:58:34;17.73;;;8.80;;
50128;SDS011;36026;45.478;9.224;2023-06-22T08:01:36;18.80;;;8.27;;
50128;SDS011;36026;45.478;9.224;2023-06-22T08:04:39;10.63;;;6.93;;
50128;SDS011;36026;45.478;9.224;2023-06-22T08:07:41;14.38;;;7.15;;
50128;SDS011;36026;45.478;9.224;2023-06-22T08:10:44;11.57;;;7.10;;
50128;SDS011;36026;45.478;9.224;2023-06-22T08:13:46;16.50;;;7.32;;
50128;SDS011;36026;45.478;9.224;2023-06-22T08:16:48;13.10;;;7.22;;
50128;SDS011;36026;45.478;9.224;2023-06-22T08:19:51;13.18;;;6.47;;
50128;SDS011;36026;45.478;9.224;2023-06-22T08:22:53;19.52;;;7.80;;
50128;SDS011;36026;45.478;9.224;2023-06-22T08:25:55;15.73;;;7.43;;
50128;SDS011;36026;45.478;9.224;2023-06-22T08:28:57;19.35;;;7.57;;
50128;SDS011;36026;45.478;9.224;2023-06-22T08:31:59;15.75;;;7.43;;
50128;SDS011;36026;45.478;9.224;2023-06-22T08:35:02;16.93;;;7.90;;
50128;SDS011;36026;45.478;9.224;2023-06-22T08:38:06;19.95;;;8.00;;
50128;SDS011;36026;45.478;9.224;2023-06-22T08:41:07;13.57;;;7.90;;
50128;SDS011;36026;45.478;9.224;2023-06-22T08:44:09;12.93;;;7.40;;
50128;SDS011;36026;45.478;9.224;2023-06-22T08:47:11;10.93;;;7.00;;
50128;SDS011;36026;45.478;9.224;2023-06-22T08:50:14;16.77;;;7.28;;
50128;SDS011;36026;45.478;9.224;2023-06-22T08:53:15;12.32;;;7.65;;
50128;SDS011;36026;45.478;9.224;2023-06-22T08:56:17;12.88;;;7.40;;
50128;SDS011;36026;45.478;9.224;2023-06-22T08:59:19;11.40;;;6.82;;
50128;SDS011;36026;45.478;9.224;2023-06-22T09:02:20;15.00;;;7.73;;
50128;SDS011;36026;45.478;9.224;2023-06-22T09:05:24;9.88;;;6.63;;
50128;SDS011;36026;45.478;9.224;2023-06-22T09:08:26;12.77;;;7.05;;
50128;SDS011;36026;45.478;9.224;2023-06-22T09:11:27;19.65;;;7.38;;
50128;SDS011;36026;45.478;9.224;2023-06-22T09:14:29;16.52;;;7.50;;
50128;SDS011;36026;45.478;9.224;2023-06-22T09:17:31;16.90;;;8.32;;
50128;SDS011;36026;45.478;9.224;2023-06-22T09:20:34;20.88;;;8.50;;
50128;SDS011;36026;45.478;9.224;2023-06-22T09:23:36;13.88;;;8.85;;
50128;SDS011;36026;45.478;9.224;2023-06-22T09:26:37;13.55;;;7.43;;
50128;SDS011;36026;45.478;9.224;2023-06-22T09:29:39;11.98;;;7.25;;
50128;SDS011;36026;45.478;9.224;2023-06-22T09:32:41;13.23;;;7.05;;
50128;SDS011;36026;45.478;9.224;2023-06-22T09:35:45;16.55;;;7.60;;
50128;SDS011;36026;45.478;9.224;2023-06-22T09:38:47;15.35;;;7.40;;
50128;SDS011;36026;45.478;9.224;2023-06-22T09:41:49;17.70;;;8.93;;
50128;SDS011;36026;45.478;9.224;2023-06-22T09:44:51;12.43;;;8.10;;
50128;SDS011;36026;45.478;9.224;2023-06-22T09:47:53;14.68;;;8.60;;
50128;SDS011;36026;45.478;9.224;2023-06-22T09:50:56;11.93;;;7.50;;
50128;SDS011;36026;45.478;9.224;2023-06-22T09:53:58;15.88;;;8.82;;
50128;SDS011;36026;45.478;9.224;2023-06-22T10:00:01;13.03;;;9.07;;
50128;SDS011;36026;45.478;9.224;2023-06-22T10:03:05;15.57;;;8.45;;
50128;SDS011;36026;45.478;9.224;2023-06-22T10:06:08;14.95;;;8.43;;
50128;SDS011;36026;45.478;9.224;2023-06-22T10:09:10;14.25;;;8.15;;
50128;SDS011;36026;45.478;9.224;2023-06-22T10:12:12;15.43;;;7.65;;
50128;SDS011;36026;45.478;9.224;2023-06-22T10:18:15;15.88;;;8.38;;
50128;SDS011;36026;45.478;9.224;2023-06-22T10:21:18;16.17;;;7.43;;
50128;SDS011;36026;45.478;9.224;2023-06-22T10:24:20;14.77;;;8.10;;
50128;SDS011;36026;45.478;9.224;2023-06-22T10:30:23;12.63;;;7.90;;
50128;SDS011;36026;45.478;9.224;2023-06-22T10:33:25;9.80;;;6.93;;
50128;SDS011;36026;45.478;9.224;2023-06-22T10:39:29;11.30;;;6.68;;
50128;SDS011;36026;45.478;9.224;2023-06-22T10:45:32;12.07;;;7.57;;
50128;SDS011;36026;45.478;9.224;2023-06-22T10:51:37;12.52;;;6.97;;
50128;SDS011;36026;45.478;9.224;2023-06-22T10:54:39;11.82;;;7.18;;
50128;SDS011;36026;45.478;9.224;2023-06-22T11:00:44;10.77;;;6.28;;
50128;SDS011;36026;45.478;9.224;2023-06-22T11:06:48;8.60;;;6.20;;
50128;SDS011;36026;45.478;9.224;2023-06-22T11:09:50;9.88;;;6.20;;
50128;SDS011;36026;45.478;9.224;2023-06-22T11:15:55;12.30;;;6.13;;
50128;SDS011;36026;45.478;9.224;2023-06-22T11:22:00;10.27;;;6.25;;
50128;SDS011;36026;45.478;9.224;2023-06-22T11:25:02;12.07;;;6.15;;
50128;SDS011;36026;45.478;9.224;2023-06-22T11:28:04;9.65;;;6.00;;
50128;SDS011;36026;45.478;9.224;2023-06-22T11:31:06;8.90;;;5.80;;
50128;SDS011;36026;45.478;9.224;2023-06-22T11:34:08;9.30;;;6.53;;
50128;SDS011;36026;45.478;9.224;2023-06-22T11:37:11;14.98;;;7.32;;
50128;SDS011;36026;45.478;9.224;2023-06-22T11:40:13;10.00;;;6.32;;
50128;SDS011;36026;45.478;9.224;2023-06-22T11:43:15;10.07;;;6.95;;
50128;SDS011;36026;45.478;9.224;2023-06-22T11:46:16;9.70;;;6.28;;
50128;SDS011;36026;45.478;9.224;2023-06-22T11:49:18;10.23;;;6.18;;
50128;SDS011;36026;45.478;9.224;2023-06-22T11:52:21;13.43;;;7.03;;
50128;SDS011;36026;45.478;9.224;2023-06-22T11:55:23;8.45;;;5.70;;
50128;SDS011;36026;45.478;9.224;2023-06-22T11:58:24;7.90;;;5.93;;
50128;SDS011;36026;45.478;9.224;2023-06-22T12:01:26;10.15;;;6.05;;
50128;SDS011;36026;45.478;9.224;2023-06-22T12:07:31;11.90;;;5.78;;
50128;SDS011;36026;45.478;9.224;2023-06-22T12:10:32;9.57;;;5.72;;
50128;SDS011;36026;45.478;9.224;2023-06-22T12:16:36;9.75;;;6.30;;
50128;SDS011;36026;45.478;9.224;2023-06-22T12:19:37;14.90;;;6.00;;
50128;SDS011;36026;45.478;9.224;2023-06-22T12:22:41;8.65;;;5.82;;
50128;SDS011;36026;45.478;9.224;2023-06-22T12:25:44;9.60;;;5.90;;
50128;SDS011;36026;45.478;9.224;2023-06-22T12:28:46;12.15;;;5.75;;
50128;SDS011;36026;45.478;9.224;2023-06-22T12:31:49;12.70;;;5.60;;
50128;SDS011;36026;45.478;9.224;2023-06-22T12:34:50;10.30;;;5.72;;
50128;SDS011;36026;45.478;9.224;2023-06-22T12:37:53;8.07;;;6.20;;
50128;SDS011;36026;45.478;9.224;2023-06-22T12:40:55;12.75;;;6.38;;
50128;SDS011;36026;45.478;9.224;2023-06-22T12:46:58;17.73;;;7.33;;
50128;SDS011;36026;45.478;9.224;2023-06-22T12:50:00;11.65;;;7.10;;
50128;SDS011;36026;45.478;9.224;2023-06-22T12:53:03;12.23;;;7.18;;
50128;SDS011;36026;45.478;9.224;2023-06-22T12:56:06;12.48;;;7.50;;
50128;SDS011;36026;45.478;9.224;2023-06-22T12:59:08;10.32;;;6.93;;
50128;SDS011;36026;45.478;9.224;2023-06-22T13:02:10;12.20;;;7.28;;
50128;SDS011;36026;45.478;9.224;2023-06-22T13:05:12;11.02;;;7.20;;
50128;SDS011;36026;45.478;9.224;2023-06-22T13:08:15;10.77;;;7.00;;
50128;SDS011;36026;45.478;9.224;2023-06-22T13:11:16;10.18;;;6.88;;
50128;SDS011;36026;45.478;9.224;2023-06-22T13:17:20;7.45;;;6.68;;
50128;SDS011;36026;45.478;9.224;2023-06-22T13:20:22;9.55;;;6.32;;
50128;SDS011;36026;45.478;9.224;2023-06-22T13:26:26;11.63;;;6.78;;
50128;SDS011;36026;45.478;9.224;2023-06-22T13:29:29;11.77;;;6.60;;
50128;SDS011;36026;45.478;9.224;2023-06-22T13:32:31;10.00;;;6.65;;
50128;SDS011;36026;45.478;9.224;2023-06-22T13:35:33;9.45;;;7.00;;
50128;SDS011;36026;45.478;9.224;2023-06-22T13:38:36;10.20;;;6.90;;
50128;SDS011;36026;45.478;9.224;2023-06-22T13:41:39;11.40;;;6.40;;
50128;SDS011;36026;45.478;9.224;2023-06-22T13:44:43;9.77;;;6.13;;
50128;SDS011;36026;45.478;9.224;2023-06-22T13:47:45;9.10;;;6.60;;
50128;SDS011;36026;45.478;9.224;2023-06-22T13:50:47;11.65;;;7.75;;
50128;SDS011;36026;45.478;9.224;2023-06-22T13:53:50;15.15;;;8.05;;
50128;SDS011;36026;45.478;9.224;2023-06-22T13:56:52;16.98;;;8.13;;
50128;SDS011;36026;45.478;9.224;2023-06-22T13:59:53;10.68;;;7.30;;
50128;SDS011;36026;45.478;9.224;2023-06-22T14:02:55;15.75;;;7.65;;
50128;SDS011;36026;45.478;9.224;2023-06-22T14:05:57;12.73;;;7.80;;
50128;SDS011;36026;45.478;9.224;2023-06-22T14:09:00;16.52;;;6.88;;
50128;SDS011;36026;45.478;9.224;2023-06-22T14:12:05;10.68;;;7.57;;
50128;SDS011;36026;45.478;9.224;2023-06-22T14:15:08;16.42;;;7.97;;
50128;SDS011;36026;45.478;9.224;2023-06-22T14:18:10;15.20;;;8.25;;
50128;SDS011;36026;45.478;9.224;2023-06-22T14:21:11;13.27;;;7.50;;
50128;SDS011;36026;45.478;9.224;2023-06-22T14:24:14;15.07;;;8.02;;
50128;SDS011;36026;45.478;9.224;2023-06-22T14:27:16;12.13;;;7.45;;
50128;SDS011;36026;45.478;9.224;2023-06-22T14:30:18;12.60;;;8.52;;
50128;SDS011;36026;45.478;9.224;2023-06-22T14:33:19;11.43;;;8.30;;
50128;SDS011;36026;45.478;9.224;2023-06-22T14:36:21;9.60;;;8.60;;
50128;SDS011;36026;45.478;9.224;2023-06-22T14:39:24;12.32;;;7.80;;
50128;SDS011;36026;45.478;9.224;2023-06-22T14:42:26;16.58;;;8.82;;
50128;SDS011;36026;45.478;9.224;2023-06-22T14:45:30;10.40;;;9.10;;
50128;SDS011;36026;45.478;9.224;2023-06-22T14:48:31;17.00;;;8.93;;
50128;SDS011;36026;45.478;9.224;2023-06-22T14:51:33;15.60;;;8.48;;
50128;SDS011;36026;45.478;9.224;2023-06-22T14:54:36;13.23;;;8.90;;
50128;SDS011;36026;45.478;9.224;2023-06-22T14:57:38;10.38;;;7.78;;
50128;SDS011;36026;45.478;9.224;2023-06-22T15:00:39;13.27;;;7.35;;
50128;SDS011;36026;45.478;9.224;2023-06-22T15:03:41;10.73;;;7.85;;
50128;SDS011;36026;45.478;9.224;2023-06-22T15:06:43;11.23;;;7.78;;
50128;SDS011;36026;45.478;9.224;2023-06-22T15:09:46;11.82;;;7.95;;
50128;SDS011;36026;45.478;9.224;2023-06-22T15:12:48;11.52;;;7.13;;
50128;SDS011;36026;45.478;9.224;2023-06-22T15:15:50;13.20;;;7.25;;
50128;SDS011;36026;45.478;9.224;2023-06-22T15:18:52;14.80;;;7.10;;
50128;SDS011;36026;45.478;9.224;2023-06-22T15:21:53;12.80;;;6.22;;
50128;SDS011;36026;45.478;9.224;2023-06-22T15:24:56;10.80;;;6.67;;
50128;SDS011;36026;45.478;9.224;2023-06-22T15:27:59;8.80;;;6.22;;
50128;SDS011;36026;45.478;9.224;2023-06-22T15:31:01;12.63;;;6.07;;
50128;SDS011;36026;45.478;9.224;2023-06-22T15:34:02;16.00;;;6.45;;
50128;SDS011;36026;45.478;9.224;2023-06-22T15:37:04;14.70;;;7.10;;
50128;SDS011;36026;45.478;9.224;2023-06-22T15:40:08;8.80;;;5.90;;
50128;SDS011;36026;45.478;9.224;2023-06-22T15:43:10;13.60;;;5.90;;
50128;SDS011;36026;45.478;9.224;2023-06-22T15:46:13;11.60;;;6.20;;
50128;SDS011;36026;45.478;9.224;2023-06-22T15:49:17;11.43;;;6.15;;
50128;SDS011;36026;45.478;9.224;2023-06-22T15:52:19;11.13;;;6.10;;
50128;SDS011;36026;45.478;9.224;2023-06-22T15:55:22;9.50;;;5.97;;
50128;SDS011;36026;45.478;9.224;2023-06-22T15:58:24;12.60;;;5.70;;
50128;SDS011;36026;45.478;9.224;2023-06-22T16:01:26;10.35;;;6.20;;
50128;SDS011;36026;45.478;9.224;2023-06-22T16:04:27;10.05;;;5.55;;
50128;SDS011;36026;45.478;9.224;2023-06-22T16:07:29;12.63;;;6.13;;
50128;SDS011;36026;45.478;9.224;2023-06-22T16:10:32;10.70;;;5.63;;
50128;SDS011;36026;45.478;9.224;2023-06-22T16:13:34;10.20;;;5.75;;
50128;SDS011;36026;45.478;9.224;2023-06-22T16:16:36;7.65;;;5.28;;
50128;SDS011;36026;45.478;9.224;2023-06-22T16:19:37;10.55;;;5.47;;
50128;SDS011;36026;45.478;9.224;2023-06-22T16:22:39;21.97;;;6.13;;
50128;SDS011;36026;45.478;9.224;2023-06-22T16:25:43;10.80;;;5.27;;
50128;SDS011;36026;45.478;9.224;2023-06-22T16:28:45;6.82;;;4.95;;
50128;SDS011;36026;45.478;9.224;2023-06-22T16:31:47;10.43;;;4.67;;
50128;SDS011;36026;45.478;9.224;2023-06-22T16:34:49;11.03;;;5.70;;
50128;SDS011;36026;45.478;9.224;2023-06-22T16:37:52;9.73;;;5.53;;
50128;SDS011;36026;45.478;9.224;2023-06-22T16:40:55;7.95;;;5.60;;
50128;SDS011;36026;45.478;9.224;2023-06-22T16:43:57;12.63;;;5.47;;
50128;SDS011;36026;45.478;9.224;2023-06-22T16:47:05;9.77;;;5.47;;
50128;SDS011;36026;45.478;9.224;2023-06-22T16:50:08;11.50;;;5.20;;
50128;SDS011;36026;45.478;9.224;2023-06-22T16:56:13;10.65;;;5.18;;
50128;SDS011;36026;45.478;9.224;2023-06-22T16:59:15;8.95;;;5.63;;
50128;SDS011;36026;45.478;9.224;2023-06-22T17:02:17;10.23;;;6.53;;
50128;SDS011;36026;45.478;9.224;2023-06-22T17:05:20;14.18;;;5.72;;
50128;SDS011;36026;45.478;9.224;2023-06-22T17:08:24;11.95;;;6.18;;
50128;SDS011;36026;45.478;9.224;2023-06-22T17:11:29;11.20;;;5.53;;
50128;SDS011;36026;45.478;9.224;2023-06-22T17:14:32;14.70;;;5.90;;
50128;SDS011;36026;45.478;9.224;2023-06-22T17:17:33;13.43;;;6.63;;
50128;SDS011;36026;45.478;9.224;2023-06-22T17:20:36;9.40;;;5.97;;
50128;SDS011;36026;45.478;9.224;2023-06-22T17:23:37;10.10;;;6.30;;
50128;SDS011;36026;45.478;9.224;2023-06-22T17:26:41;13.10;;;5.72;;
50128;SDS011;36026;45.478;9.224;2023-06-22T17:29:46;11.40;;;6.10;;
50128;SDS011;36026;45.478;9.224;2023-06-22T17:32:48;10.35;;;5.65;;
50128;SDS011;36026;45.478;9.224;2023-06-22T17:35:50;11.27;;;5.68;;
50128;SDS011;36026;45.478;9.224;2023-06-22T17:38:52;11.30;;;5.40;;
50128;SDS011;36026;45.478;9.224;2023-06-22T17:42:01;7.72;;;5.05;;
50128;SDS011;36026;45.478;9.224;2023-06-22T17:45:03;11.15;;;5.63;;
50128;SDS011;36026;45.478;9.224;2023-06-22T17:48:05;9.93;;;6.30;;
50128;SDS011;36026;45.478;9.224;2023-06-22T17:51:09;9.57;;;6.03;;
50128;SDS011;36026;45.478;9.224;2023-06-22T17:54:11;9.23;;;5.67;;
50128;SDS011;36026;45.478;9.224;2023-06-22T17:57:15;11.13;;;5.55;;
50128;SDS011;36026;45.478;9.224;2023-06-22T18:00:18;10.50;;;5.20;;
50128;SDS011;36026;45.478;9.224;2023-06-22T18:03:22;10.00;;;6.00;;
50128;SDS011;36026;45.478;9.224;2023-06-22T18:06:25;8.07;;;5.72;;
50128;SDS011;36026;45.478;9.224;2023-06-22T18:09:28;8.88;;;5.70;;
50128;SDS011;36026;45.478;9.224;2023-06-22T18:12:32;9.25;;;6.15;;
50128;SDS011;36026;45.478;9.224;2023-06-22T18:15:34;9.55;;;6.35;;
50128;SDS011;36026;45.478;9.224;2023-06-22T18:18:38;10.65;;;6.35;;
50128;SDS011;36026;45.478;9.224;2023-06-22T18:21:40;12.03;;;6.20;;
50128;SDS011;36026;45.478;9.224;2023-06-22T18:24:42;11.60;;;5.88;;
50128;SDS011;36026;45.478;9.224;2023-06-22T18:30:48;10.35;;;6.55;;
50128;SDS011;36026;45.478;9.224;2023-06-22T18:33:51;11.37;;;6.80;;
50128;SDS011;36026;45.478;9.224;2023-06-22T18:36:54;11.30;;;6.30;;
50128;SDS011;36026;45.478;9.224;2023-06-22T18:39:57;14.60;;;6.68;;
50128;SDS011;36026;45.478;9.224;2023-06-22T18:43:00;10.95;;;6.68;;
50128;SDS011;36026;45.478;9.224;2023-06-22T18:49:30;11.57;;;6.45;;
50128;SDS011;36026;45.478;9.224;2023-06-22T18:52:33;11.80;;;6.60;;
50128;SDS011;36026;45.478;9.224;2023-06-22T18:55:36;11.68;;;6.40;;
50128;SDS011;36026;45.478;9.224;2023-06-22T18:58:39;7.68;;;6.97;;
50128;SDS011;36026;45.478;9.224;2023-06-22T19:01:41;12.82;;;6.43;;
50128;SDS011;36026;45.478;9.224;2023-06-22T19:04:43;15.23;;;6.77;;
50128;SDS011;36026;45.478;9.224;2023-06-22T19:07:58;18.17;;;6.53;;
50128;SDS011;36026;45.478;9.224;2023-06-22T19:11:10;11.00;;;6.93;;
50128;SDS011;36026;45.478;9.224;2023-06-22T19:14:19;12.13;;;6.90;;
50128;SDS011;36026;45.478;9.224;2023-06-22T19:17:21;10.77;;;6.63;;
50128;SDS011;36026;45.478;9.224;2023-06-22T19:20:32;14.27;;;7.47;;
50128;SDS011;36026;45.478;9.224;2023-06-22T19:23:35;8.85;;;6.28;;
50128;SDS011;36026;45.478;9.224;2023-06-22T19:26:37;15.88;;;6.40;;